Time;durP1;ratioP1;P1;durP2;ratioP2;P2;SDS_P1;SDS_P2;PMS_P1;PMS_P2;Temp;Humidity;BMP_temperature;BMP_pressure;BME280_temperature;BME280_humidity;BME280_pressure;Samples;Min_cycle;Max_cycle;Signal;HPM_P1;HPM_P2
2023/05/25 00:00:10;;;;;;;;;21.00;16.50;;;;;17.15;50.10;101817.28;4840253;29;45412;-71
2023/05/25 00:02:36;;;;;;;;;17.25;14.50;;;;;17.15;50.31;101828.06;4847098;29;45521;-71
2023/05/25 00:05:02;;;;;;;;;15.25;14.00;;;;;17.13;50.38;101817.34;4851550;29;45473;-71
2023/05/25 00:07:27;;;;;;;;;17.25;12.00;;;;;17.15;50.51;101828.06;4846229;29;45408;-71
2023/05/25 00:09:53;;;;;;;;;13.50;13.50;;;;;17.07;50.69;101811.34;4846807;29;45533;-71
2023/05/25 00:12:18;;;;;;;;;14.50;14.50;;;;;17.04;50.85;101806.97;4847245;29;45432;-71
2023/05/25 00:14:44;;;;;;;;;11.00;11.00;;;;;17.04;50.50;101818.63;4845748;29;47308;-71
2023/05/25 00:17:10;;;;;;;;;7.75;7.00;;;;;17.00;50.52;101814.28;4846856;29;45314;-71
2023/05/25 00:19:36;;;;;;;;;14.00;14.00;;;;;16.96;50.88;101804.59;4861523;29;45410;-71
2023/05/25 00:22:01;;;;;;;;;13.75;10.25;;;;;17.00;50.66;101827.78;4846172;29;45304;-71
2023/05/25 00:24:30;;;;;;;;;11.75;11.50;;;;;16.94;50.82;101816.38;4845813;29;45383;-71
2023/05/25 00:26:56;;;;;;;;;13.50;11.75;;;;;16.96;50.84;101815.38;4846734;29;45394;-71
2023/05/25 00:29:22;;;;;;;;;10.75;9.25;;;;;16.96;51.04;101817.19;4845750;29;45453;-71
2023/05/25 00:31:49;;;;;;;;;15.00;14.25;;;;;16.89;50.95;101813.88;4845907;29;45399;-71
2023/05/25 00:34:15;;;;;;;;;12.75;11.50;;;;;16.76;50.74;101786.50;4844403;29;47452;-71
2023/05/25 00:36:42;;;;;;;;;10.50;10.50;;;;;16.89;50.95;101811.19;4846897;29;45492;-71
2023/05/25 00:39:08;;;;;;;;;16.75;15.25;;;;;16.75;51.21;101787.44;4846816;29;45736;-71
2023/05/25 00:41:40;;;;;;;;;15.25;14.25;;;;;16.93;51.35;101818.19;4845762;29;45495;-71
2023/05/25 00:44:05;;;;;;;;;12.50;11.50;;;;;16.85;51.34;101812.25;4842561;29;46384;-71
2023/05/25 00:46:33;;;;;;;;;12.50;11.00;;;;;16.87;51.52;101812.19;4846419;29;45469;-71
2023/05/25 00:48:58;;;;;;;;;14.25;12.50;;;;;16.80;51.81;101814.22;4846989;29;45360;-71
2023/05/25 00:51:25;;;;;;;;;13.75;11.75;;;;;16.88;51.83;101814.81;4846121;29;45388;-71
2023/05/25 00:53:51;;;;;;;;;18.00;15.00;;;;;16.85;51.26;101818.50;4839402;29;45516;-71
2023/05/25 00:56:23;;;;;;;;;15.75;14.25;;;;;16.81;51.56;101827.63;4845610;29;45594;-71
2023/05/25 00:58:52;;;;;;;;;13.00;13.00;;;;;16.78;51.84;101824.19;4846443;29;45528;-71
2023/05/25 01:01:19;;;;;;;;;12.50;12.50;;;;;16.80;52.24;101820.47;4846349;29;45608;-71
2023/05/25 01:03:52;;;;;;;;;14.00;12.75;;;;;16.73;52.16;101808.19;4848886;29;46432;-71
2023/05/25 01:06:20;;;;;;;;;12.00;12.00;;;;;16.76;52.04;101818.88;4845185;29;45396;-71
2023/05/25 01:08:51;;;;;;;;;14.75;12.25;;;;;16.73;52.57;101816.28;4846184;29;45334;-71
2023/05/25 01:11:20;;;;;;;;;12.75;10.75;;;;;16.67;52.47;101801.25;4845096;29;45523;-71
2023/05/25 01:13:48;;;;;;;;;15.00;14.25;;;;;16.77;52.71;101817.03;4844643;29;46047;-71
2023/05/25 01:16:15;;;;;;;;;16.00;13.50;;;;;16.68;52.71;101813.78;4838370;29;45705;-71
2023/05/25 01:18:46;;;;;;;;;15.00;15.00;;;;;16.71;53.00;101809.22;4846142;29;45461;-71
2023/05/25 01:21:20;;;;;;;;;16.75;15.00;;;;;16.66;52.97;101814.78;4845760;29;45544;-71
2023/05/25 01:23:54;;;;;;;;;17.50;15.00;;;;;16.47;53.10;101795.78;4844935;29;46397;-70
2023/05/25 01:26:25;;;;;;;;;14.50;13.50;;;;;16.53;53.22;101806.31;4838336;29;45973;-71
2023/05/25 01:28:52;;;;;;;;;13.75;11.25;;;;;16.61;53.28;101822.19;4846239;29;45319;-71
2023/05/25 01:31:21;;;;;;;;;16.50;14.25;;;;;16.59;53.41;101813.28;4846038;29;45322;-70
2023/05/25 01:33:50;;;;;;;;;14.75;13.00;;;;;16.60;53.93;101824.00;4845933;29;46096;-71
2023/05/25 01:36:15;;;;;;;;;14.00;13.00;;;;;16.55;53.66;101817.91;4844536;29;45436;-71
2023/05/25 01:38:40;;;;;;;;;16.25;15.25;;;;;16.58;54.03;101819.63;4828192;29;45469;-71
2023/05/25 01:41:06;;;;;;;;;15.25;13.50;;;;;16.48;53.82;101811.88;4845715;29;45511;-71
2023/05/25 01:43:31;;;;;;;;;13.25;13.25;;;;;16.58;53.69;101833.09;4843882;29;46950;-71
2023/05/25 01:46:29;;;;;;;;;16.00;15.25;;;;;16.52;54.12;101828.81;4845949;29;45423;-70
2023/05/25 01:49:08;;;;;;;;;13.75;12.75;;;;;16.43;54.16;101826.50;4843194;29;45325;-71
2023/05/25 01:51:59;;;;;;;;;13.25;13.00;;;;;16.39;54.25;101816.75;4845561;29;45512;-71
2023/05/25 01:54:33;;;;;;;;;11.00;10.00;;;;;16.45;54.23;101825.47;4843056;29;48112;-70
2023/05/25 01:57:00;;;;;;;;;13.00;13.00;;;;;16.45;54.12;101836.25;4845884;29;45515;-71
2023/05/25 01:59:28;;;;;;;;;16.50;14.50;;;;;16.29;54.06;101818.97;4845561;29;45462;-71
2023/05/25 02:01:53;;;;;;;;;14.25;13.75;;;;;16.33;54.63;101828.69;4845958;29;45472;-71
2023/05/25 02:04:20;;;;;;;;;16.75;13.75;;;;;16.26;54.79;101827.16;4845854;29;45650;-71
2023/05/25 02:06:47;;;;;;;;;17.00;15.25;;;;;16.22;54.67;101830.91;4844868;29;45567;-71
2023/05/25 02:09:13;;;;;;;;;17.00;17.00;;;;;16.20;54.67;101841.72;4842448;29;46122;-70
2023/05/25 02:11:38;;;;;;;;;15.50;13.75;;;;;16.14;54.91;101836.59;4843409;29;56299;-70
2023/05/25 02:14:03;;;;;;;;;15.75;14.00;;;;;16.11;54.83;101840.28;4845004;29;46027;-70
2023/05/25 02:16:29;;;;;;;;;13.00;11.75;;;;;16.06;54.92;101836.88;4845343;29;45474;-70
2023/05/25 02:18:56;;;;;;;;;11.00;9.00;;;;;16.08;54.95;101848.47;4845336;29;45391;-70
2023/05/25 02:21:22;;;;;;;;;10.50;10.25;;;;;16.02;55.08;101846.03;4844944;29;45571;-71
2023/05/25 02:23:48;;;;;;;;;13.00;13.00;;;;;15.90;54.87;101838.38;4845065;29;46131;-71
2023/05/25 02:26:13;;;;;;;;;18.75;12.00;;;;;15.95;55.13;101855.25;4845467;29;45528;-71
2023/05/25 02:28:38;;;;;;;;;14.75;13.50;;;;;15.90;54.93;101852.75;4844025;29;45515;-71
2023/05/25 02:31:04;;;;;;;;;13.75;12.75;;;;;15.82;54.97;101844.06;4845215;29;48957;-71
2023/05/25 02:33:29;;;;;;;;;10.75;10.25;;;;;15.86;55.00;101856.47;4845060;29;46166;-71
2023/05/25 02:35:55;;;;;;;;;13.50;12.50;;;;;15.82;55.03;101857.53;4844485;29;45430;-71
2023/05/25 02:38:20;;;;;;;;;15.50;14.75;;;;;15.60;55.11;101822.38;4845116;29;45523;-71
2023/05/25 02:40:45;;;;;;;;;12.50;10.75;;;;;15.68;55.09;101843.66;4859106;29;49129;-71
2023/05/25 02:43:11;;;;;;;;;12.25;11.50;;;;;15.73;55.19;101864.06;4844795;29;46169;-70
2023/05/25 02:45:36;;;;;;;;;12.75;12.75;;;;;15.71;55.37;101865.09;4843815;29;45424;-70
2023/05/25 02:48:01;;;;;;;;;14.25;12.00;;;;;15.65;55.56;101863.50;4845251;29;45427;-71
2023/05/25 02:50:27;;;;;;;;;15.00;14.00;;;;;15.70;55.11;101868.69;4859439;29;45406;-70
2023/05/25 02:52:52;;;;;;;;;11.25;10.00;;;;;15.66;55.33;101865.25;4843222;29;46234;-70
2023/05/25 02:55:18;;;;;;;;;13.25;12.25;;;;;15.64;55.43;101864.44;4844920;29;45727;-71
2023/05/25 02:57:43;;;;;;;;;14.00;13.75;;;;;15.68;55.73;101863.38;4847801;29;45305;-70
2023/05/25 03:00:11;;;;;;;;;12.00;12.00;;;;;15.73;55.95;101874.84;4848113;29;50354;-71
2023/05/25 03:02:37;;;;;;;;;14.75;10.75;;;;;15.69;55.29;101862.44;4848253;29;45427;-71
2023/05/25 03:05:03;;;;;;;;;10.75;10.75;;;;;15.63;55.44;101859.09;4852721;29;45610;-70
2023/05/25 03:07:28;;;;;;;;;14.00;12.25;;;;;15.62;55.63;101863.63;4846254;29;45419;-71
2023/05/25 03:09:54;;;;;;;;;17.00;15.25;;;;;15.39;55.41;101845.59;4848022;29;45440;-71
2023/05/25 03:12:19;;;;;;;;;11.25;11.25;;;;;15.47;55.93;101873.09;4847677;29;45839;-70
2023/05/25 03:14:45;;;;;;;;;13.75;11.00;;;;;15.42;56.03;101866.09;4846986;29;45404;-71
2023/05/25 03:17:10;;;;;;;;;15.50;13.75;;;;;15.49;55.95;101882.00;4847972;29;45427;-70
2023/05/25 03:19:35;;;;;;;;;16.50;14.50;;;;;15.49;55.58;101887.38;4848009;29;45389;-70
2023/05/25 03:22:02;;;;;;;;;14.25;13.50;;;;;15.42;55.94;101869.69;4852919;29;46179;-70
2023/05/25 03:24:28;;;;;;;;;15.50;13.25;;;;;15.38;56.02;101876.09;4847411;29;45395;-71
2023/05/25 03:26:53;;;;;;;;;13.75;12.75;;;;;15.40;56.14;101876.91;4847915;29;46074;-71
2023/05/25 03:29:18;;;;;;;;;14.00;14.00;;;;;15.41;56.23;101888.56;4847513;29;46214;-70
2023/05/25 03:31:44;;;;;;;;;15.00;13.50;;;;;15.33;56.26;101865.47;4847776;29;45470;-70
2023/05/25 03:34:09;;;;;;;;;14.25;13.50;;;;;15.44;56.20;101892.03;4846522;29;45362;-70
2023/05/25 03:36:36;;;;;;;;;15.00;13.25;;;;;15.45;56.21;101895.59;4845618;29;45494;-70
2023/05/25 03:39:02;;;;;;;;;12.00;11.25;;;;;15.46;56.16;101889.28;4844388;29;45281;-71
2023/05/25 03:41:27;;;;;;;;;12.75;12.00;;;;;15.43;56.46;101892.09;4845013;29;46205;-71
2023/05/25 03:43:52;;;;;;;;;11.50;10.00;;;;;15.44;56.04;101899.25;4847653;29;45452;-70
2023/05/25 03:46:18;;;;;;;;;11.00;11.00;;;;;15.50;56.27;101899.91;4847627;29;47362;-70
2023/05/25 03:48:43;;;;;;;;;11.75;11.75;;;;;15.53;56.20;101905.16;4846117;29;45524;-70
2023/05/25 03:51:08;;;;;;;;;12.75;11.00;;;;;15.56;56.22;101907.75;4846101;29;47864;-70
2023/05/25 03:53:34;;;;;;;;;14.50;12.75;;;;;15.59;56.06;101912.16;4846332;29;45674;-70
2023/05/25 03:55:59;;;;;;;;;13.75;11.50;;;;;15.54;55.97;101906.06;4843184;29;45423;-70
2023/05/25 03:58:25;;;;;;;;;14.50;13.00;;;;;15.52;56.11;101911.50;4845603;29;45593;-70
2023/05/25 04:00:51;;;;;;;;;12.25;11.75;;;;;15.49;56.22;101908.03;4846097;29;47341;-70
2023/05/25 04:03:17;;;;;;;;;10.75;10.75;;;;;15.48;56.43;101898.19;4847722;29;45459;-70
2023/05/25 04:05:44;;;;;;;;;15.00;13.00;;;;;15.43;56.61;101892.97;4847644;29;45303;-70
2023/05/25 04:08:12;;;;;;;;;14.75;14.00;;;;;15.53;56.03;101910.53;4846237;29;45540;-71
2023/05/25 04:10:37;;;;;;;;;13.00;12.00;;;;;15.46;56.17;101902.75;4845777;29;46391;-70
2023/05/25 04:13:02;;;;;;;;;16.25;15.50;;;;;15.35;56.34;101895.94;4860168;29;45306;-70
2023/05/25 04:15:29;;;;;;;;;14.00;11.75;;;;;15.22;56.49;101878.44;4846189;29;45623;-70
2023/05/25 04:17:54;;;;;;;;;18.75;16.25;;;;;15.32;56.55;101895.16;4845900;29;45426;-71
2023/05/25 04:20:19;;;;;;;;;13.75;13.75;;;;;15.32;56.56;101898.72;4845869;29;46256;-70
2023/05/25 04:22:45;;;;;;;;;16.75;15.00;;;;;15.40;56.62;101902.94;4848294;29;45460;-71
2023/05/25 04:25:10;;;;;;;;;18.50;16.50;;;;;15.24;56.57;101881.09;4845195;29;55128;-70
2023/05/25 04:27:35;;;;;;;;;15.00;14.00;;;;;15.35;56.68;101906.69;4844732;29;45476;-70
2023/05/25 04:30:02;;;;;;;;;15.75;15.75;;;;;15.32;56.72;101908.59;4845180;29;46133;-70
2023/05/25 04:32:28;;;;;;;;;15.25;13.50;;;;;15.19;56.88;101894.69;4843220;29;45402;-70
2023/05/25 04:34:55;;;;;;;;;18.00;16.50;;;;;15.17;56.90;101885.78;4845564;29;45502;-70
2023/05/25 04:37:21;;;;;;;;;18.50;17.25;;;;;15.26;56.86;101906.13;4845545;29;46294;-70
2023/05/25 04:39:47;;;;;;;;;13.00;13.00;;;;;15.06;56.69;101894.19;4844135;29;46574;-70
2023/05/25 04:42:13;;;;;;;;;12.50;12.00;;;;;15.12;57.12;101912.84;4841994;29;45405;-70
2023/05/25 04:44:39;;;;;;;;;16.00;14.00;;;;;15.06;56.93;101904.94;4845707;29;45539;-70
2023/05/25 04:47:06;;;;;;;;;14.75;13.50;;;;;15.10;57.32;101913.78;4845149;29;45830;-70
2023/05/25 04:49:31;;;;;;;;;20.00;17.25;;;;;15.01;57.01;101901.53;4844222;29;46228;-70
2023/05/25 04:51:56;;;;;;;;;16.00;16.00;;;;;14.99;57.35;101904.28;4845335;29;45475;-70
2023/05/25 04:54:22;;;;;;;;;12.25;12.00;;;;;15.06;57.34;101926.47;4845236;29;46697;-71
2023/05/25 04:56:47;;;;;;;;;16.50;13.00;;;;;15.06;57.48;101917.53;4843712;29;45599;-70
2023/05/25 04:59:13;;;;;;;;;15.00;12.33;;;;;15.00;57.26;101926.66;4807100;29;1150214;-70
2023/05/25 05:01:39;;;;;;;;;16.00;14.25;;;;;14.91;57.25;101916.22;4845444;29;45512;-70
2023/05/25 05:04:06;;;;;;;;;15.00;13.75;;;;;14.86;56.92;101931.59;4847877;29;45507;-70
2023/05/25 05:06:31;;;;;;;;;15.00;14.00;;;;;14.79;57.27;101922.84;4845171;29;45365;-70
2023/05/25 05:08:56;;;;;;;;;18.50;16.50;;;;;14.64;57.27;101914.31;4846019;29;46008;-70
2023/05/25 05:11:22;;;;;;;;;17.00;13.00;;;;;14.54;57.85;101920.00;4844993;29;45258;-71
2023/05/25 05:13:48;;;;;;;;;12.75;10.75;;;;;14.34;57.92;101891.94;4838606;29;45366;-70
2023/05/25 05:16:13;;;;;;;;;18.50;13.00;;;;;14.60;58.07;101935.97;4846256;29;45314;-70
2023/05/25 05:18:38;;;;;;;;;12.75;12.75;;;;;14.59;58.44;101932.41;4845202;29;46136;-70
2023/05/25 05:21:04;;;;;;;;;18.50;15.50;;;;;14.65;58.00;101942.09;4846370;29;45416;-70
2023/05/25 05:23:29;;;;;;;;;12.75;12.75;;;;;14.66;57.96;101949.22;4845667;29;45557;-70
2023/05/25 05:25:54;;;;;;;;;13.25;12.75;;;;;14.70;57.87;101945.53;4846008;29;45487;-70
2023/05/25 05:28:20;;;;;;;;;17.25;13.50;;;;;14.68;58.07;101951.84;4844829;29;45885;-70
2023/05/25 05:30:46;;;;;;;;;13.00;13.00;;;;;14.48;57.84;101929.13;4844533;29;45382;-70
2023/05/25 05:33:12;;;;;;;;;14.25;11.50;;;;;14.62;57.75;101952.94;4844488;29;45655;-70
2023/05/25 05:35:37;;;;;;;;;13.75;12.00;;;;;14.67;58.22;101961.75;4844233;29;45513;-70
2023/05/25 05:38:02;;;;;;;;;13.50;12.00;;;;;14.59;57.75;101935.09;4845756;29;46499;-70
2023/05/25 05:40:28;;;;;;;;;19.00;12.75;;;;;14.72;57.67;101956.22;4843843;29;45490;-70
2023/05/25 05:42:53;;;;;;;;;15.00;14.00;;;;;14.71;57.88;101962.53;4842972;29;45635;-73
2023/05/25 05:45:18;;;;;;;;;14.25;10.50;;;;;14.61;57.60;101953.84;4845413;29;45518;-73
2023/05/25 05:47:44;;;;;;;;;10.00;10.00;;;;;14.62;57.54;101958.31;4844087;29;47270;-73
2023/05/25 05:50:09;;;;;;;;;8.75;6.00;;;;;14.69;57.63;101964.38;4841746;29;45453;-74
2023/05/25 05:53:14;;;;;;;;;16.25;12.50;;;;;14.71;57.90;101975.97;4852232;29;45524;-73
2023/05/25 05:55:53;;;;;;;;;;;;;;;;;;;;;
2023/05/25 06:27:27;;;;;;;;;;;;;;;;;;;;;
2023/05/25 07:15:10;;;;;;;;;11.25;10.25;;;;;15.09;55.80;101979.28;6228539;22;1291169;-77
2023/05/25 07:17:35;;;;;;;;;13.75;11.00;;;;;15.17;56.15;101988.00;6247061;22;45334;-77
2023/05/25 07:20:03;;;;;;;;;10.50;10.00;;;;;15.16;56.06;101981.72;6251999;22;45385;-79
2023/05/25 07:22:28;;;;;;;;;13.00;9.75;;;;;15.24;55.66;101980.59;6251383;22;45573;-76
2023/05/25 07:24:53;;;;;;;;;4.75;4.75;;;;;15.35;55.55;101998.16;6251603;22;45370;-78
2023/05/25 07:27:19;;;;;;;;;10.75;10.00;;;;;15.42;55.87;101995.25;6252373;22;52014;-78
2023/05/25 07:29:44;;;;;;;;;8.75;8.75;;;;;15.44;55.64;101979.97;6251752;22;45310;-78
2023/05/25 07:32:10;;;;;;;;;10.50;9.00;;;;;15.53;54.56;101996.66;6252127;22;45276;-78
2023/05/25 07:34:35;;;;;;;;;15.75;12.50;;;;;15.56;54.36;101990.31;6251134;22;46567;-78
2023/05/25 07:37:00;;;;;;;;;11.00;9.50;;;;;15.53;54.42;101983.19;6251924;22;45286;-78
2023/05/25 07:39:26;;;;;;;;;10.75;7.50;;;;;15.65;53.69;101990.00;6253274;22;45197;-77
2023/05/25 07:41:51;;;;;;;;;7.50;7.25;;;;;15.71;53.74;101988.91;6252215;22;45633;-77
2023/05/25 07:44:16;;;;;;;;;8.75;8.25;;;;;15.78;53.92;101989.63;6248212;22;46037;-77
2023/05/25 07:46:42;;;;;;;;;10.50;7.25;;;;;15.85;53.52;101986.63;6246193;22;45396;-77
2023/05/25 07:49:12;;;;;;;;;10.00;8.25;;;;;15.89;52.96;101977.53;6246835;22;45279;-78
2023/05/25 07:51:38;;;;;;;;;8.25;7.00;;;;;16.00;53.01;101977.13;6247008;22;45207;-77
2023/05/25 07:54:03;;;;;;;;;10.00;9.00;;;;;16.11;53.02;101995.63;6244014;22;46281;-78
2023/05/25 07:56:28;;;;;;;;;9.75;7.50;;;;;16.20;52.38;102003.38;6246689;22;45297;-77
2023/05/25 07:58:54;;;;;;;;;7.50;7.00;;;;;16.15;52.40;101981.09;6246456;22;45266;-78
2023/05/25 08:01:20;;;;;;;;;9.50;8.75;;;;;16.28;52.19;101990.50;6245164;22;45604;-76
2023/05/25 08:03:45;;;;;;;;;11.50;9.00;;;;;16.37;52.32;101999.19;6244164;22;47158;-77
2023/05/25 08:06:11;;;;;;;;;10.00;8.25;;;;;16.44;52.05;102004.31;6244920;22;45231;-77
2023/05/25 08:08:36;;;;;;;;;8.50;8.50;;;;;16.50;52.00;101997.78;6245463;22;45404;-77
2023/05/25 08:11:02;;;;;;;;;7.75;7.00;;;;;16.51;51.65;102004.97;6246591;22;45404;-77
2023/05/25 08:13:27;;;;;;;;;5.75;5.75;;;;;16.58;50.54;102002.91;6243137;22;48606;-77
2023/05/25 08:15:52;;;;;;;;;7.75;7.00;;;;;16.54;51.11;101987.78;6245453;22;45383;-78
2023/05/25 08:18:18;;;;;;;;;8.75;6.25;;;;;16.69;51.09;102000.69;6245639;22;47410;-77
2023/05/25 08:20:43;;;;;;;;;5.50;5.50;;;;;16.77;50.80;101997.69;6246368;22;45211;-78
2023/05/25 08:23:09;;;;;;;;;7.50;6.25;;;;;16.78;50.40;102016.50;6244447;22;47316;-77
2023/05/25 08:25:34;;;;;;;;;5.75;5.75;;;;;16.85;49.24;102003.69;6242537;22;45365;-77
2023/05/25 08:27:59;;;;;;;;;6.00;5.25;;;;;16.85;49.38;102011.78;6245764;22;45451;-77
2023/05/25 08:30:25;;;;;;;;;5.75;5.25;;;;;16.87;48.84;102001.81;6245054;22;45207;-77
2023/05/25 08:32:50;;;;;;;;;8.25;8.25;;;;;16.91;49.27;101992.69;6245517;22;46018;-77
2023/05/25 08:35:16;;;;;;;;;8.25;5.00;;;;;16.99;49.15;101995.97;6245019;22;45256;-77
2023/05/25 08:37:42;;;;;;;;;7.00;6.00;;;;;17.07;48.65;101986.69;6246553;22;45391;-77
2023/05/25 08:40:13;;;;;;;;;7.25;4.75;;;;;17.13;48.30;101986.44;6245942;22;45358;-77
2023/05/25 08:42:41;;;;;;;;;6.00;6.00;;;;;17.18;48.73;101981.75;6218151;22;47923;-77
2023/05/25 08:45:08;;;;;;;;;7.75;4.50;;;;;17.21;48.06;101982.50;6245702;22;45307;-77
2023/05/25 08:47:43;;;;;;;;;6.50;6.00;;;;;17.25;46.43;101985.94;6246876;22;45345;-77
2023/05/25 08:50:10;;;;;;;;;7.00;5.00;;;;;17.31;47.52;101995.63;6246880;22;45640;-78
2023/05/25 08:52:39;;;;;;;;;6.50;5.75;;;;;17.39;47.10;101998.84;6245366;22;46282;-77
2023/05/25 08:55:07;;;;;;;;;7.00;4.75;;;;;17.44;47.20;102004.06;6245143;22;45351;-77
2023/05/25 08:57:54;;;;;;;;;0.00;0.00;;;;;17.54;47.09;102002.75;6247047;22;45311;-77
2023/05/25 09:00:27;;;;;;;;;7.00;5.25;;;;;17.58;46.47;101999.00;6246809;22;45321;-77
2023/05/25 09:03:00;;;;;;;;;6.75;6.25;;;;;17.64;46.39;102004.16;6246720;22;45561;-77
2023/05/25 09:05:26;;;;;;;;;6.25;5.00;;;;;17.68;45.12;101999.50;6246784;22;45449;-77
2023/05/25 09:07:53;;;;;;;;;5.00;4.75;;;;;17.69;46.19;101982.31;6246466;22;45462;-77
2023/05/25 09:10:19;;;;;;;;;6.50;6.50;;;;;17.73;46.39;101984.84;6244736;22;45586;-77
2023/05/25 09:12:45;;;;;;;;;5.25;4.00;;;;;17.83;45.76;101989.84;6245738;22;45443;-77
2023/05/25 09:15:11;;;;;;;;;5.50;5.00;;;;;17.89;45.56;101997.72;6246255;22;45434;-77
2023/05/25 09:17:38;;;;;;;;;4.50;4.50;;;;;17.90;45.25;101988.66;6246459;22;45521;-77
2023/05/25 09:20:04;;;;;;;;;4.75;4.50;;;;;17.82;45.71;101969.19;6246538;22;45303;-77
2023/05/25 09:22:30;;;;;;;;;5.75;5.75;;;;;18.00;46.05;101990.03;6243980;22;48155;-77
2023/05/25 09:24:55;;;;;;;;;6.25;6.00;;;;;18.06;45.45;101992.47;6245440;22;45227;-77
2023/05/25 09:27:22;;;;;;;;;6.25;6.25;;;;;18.12;45.75;101986.78;6245897;22;45650;-77
2023/05/25 09:29:49;;;;;;;;;6.25;4.50;;;;;18.20;44.60;101983.75;6246138;22;45308;-77
2023/05/25 09:32:15;;;;;;;;;4.50;4.50;;;;;18.24;44.43;101981.78;6245615;22;45420;-77
2023/05/25 09:34:47;;;;;;;;;4.00;4.00;;;;;18.29;44.76;101988.75;6245667;22;45330;-77
2023/05/25 09:37:15;;;;;;;;;6.25;4.75;;;;;18.32;43.99;101974.19;6245421;22;45338;-77
2023/05/25 09:39:41;;;;;;;;;5.00;4.00;;;;;18.33;43.92;101979.53;6241338;22;45370;-77
2023/05/25 09:42:06;;;;;;;;;4.50;4.50;;;;;18.30;43.46;101971.56;6245931;22;46085;-78
2023/05/25 09:44:32;;;;;;;;;4.00;4.00;;;;;18.31;43.44;101970.63;6246111;22;45238;-77
2023/05/25 09:46:57;;;;;;;;;3.75;3.75;;;;;18.46;42.64;101995.19;6246907;22;45251;-77
2023/05/25 09:49:22;;;;;;;;;4.75;4.75;;;;;18.48;43.25;101983.38;6244261;22;45624;-77
2023/05/25 09:51:48;;;;;;;;;7.25;4.00;;;;;18.47;42.50;101975.31;6246056;22;46030;-78
2023/05/25 09:54:14;;;;;;;;;7.00;4.75;;;;;18.59;43.10;101979.28;6245271;22;45223;-77
2023/05/25 09:56:40;;;;;;;;;4.50;4.50;;;;;18.66;43.30;101980.75;6245381;22;45305;-77
2023/05/25 09:59:06;;;;;;;;;3.50;3.00;;;;;18.72;42.88;101985.88;6244733;22;45613;-78
2023/05/25 10:01:32;;;;;;;;;5.50;5.50;;;;;18.77;43.50;101975.72;6246032;22;46201;-77
2023/05/25 10:04:00;;;;;;;;;2.00;2.00;;;;;18.81;43.40;101998.09;6245637;22;45280;-77
2023/05/25 10:06:26;;;;;;;;;6.75;4.00;;;;;18.78;40.99;101999.13;6245579;22;45488;-78
2023/05/25 10:08:55;;;;;;;;;4.00;3.75;;;;;18.79;41.78;101995.44;6245449;22;45207;-77
2023/05/25 10:11:21;;;;;;;;;5.50;3.75;;;;;18.79;41.54;101992.75;6245283;22;45242;-77
2023/05/25 10:13:49;;;;;;;;;3.75;2.75;;;;;18.82;42.16;101995.31;6244167;22;45495;-78
2023/05/25 10:16:18;;;;;;;;;6.00;4.00;;;;;18.87;42.03;102014.94;6244474;22;45270;-78
2023/05/25 10:18:49;;;;;;;;;3.25;3.25;;;;;18.90;40.89;102013.06;6246518;22;45307;-77
2023/05/25 10:21:17;;;;;;;;;6.00;4.50;;;;;18.80;41.17;101977.41;6246480;22;46572;-77
2023/05/25 10:23:53;;;;;;;;;6.00;4.75;;;;;18.92;40.76;101994.91;6243649;22;45784;-77
2023/05/25 10:26:23;;;;;;;;;4.50;4.50;;;;;18.93;41.15;101989.44;6245962;22;45215;-78
2023/05/25 10:28:55;;;;;;;;;4.50;3.50;;;;;18.98;41.36;101987.38;6246587;22;45365;-77
2023/05/25 10:31:21;;;;;;;;;4.00;4.00;;;;;19.01;41.81;101987.25;6246565;22;45176;-77
2023/05/25 10:33:47;;;;;;;;;4.25;3.75;;;;;19.14;41.80;102001.03;6245995;22;45474;-77
2023/05/25 10:36:13;;;;;;;;;5.25;3.75;;;;;19.12;41.63;102002.94;6246238;22;45271;-77
2023/05/25 10:38:40;;;;;;;;;7.00;3.00;;;;;19.15;41.03;102004.66;6244006;22;45540;-77
2023/05/25 10:41:08;;;;;;;;;4.00;4.00;;;;;19.18;41.11;101991.84;6239967;22;45314;-77
2023/05/25 10:43:33;;;;;;;;;7.25;6.00;;;;;19.14;41.23;101978.50;6244151;22;45571;-77
2023/05/25 10:45:59;;;;;;;;;6.25;6.00;;;;;19.21;42.01;101967.31;6245219;22;45191;-77
2023/05/25 10:48:38;;;;;;;;;7.75;5.50;;;;;19.31;41.96;101983.09;6244884;22;45406;-77
2023/05/25 10:51:05;;;;;;;;;5.50;5.00;;;;;19.37;41.42;101983.66;6242939;22;46234;-77
2023/05/25 10:53:31;;;;;;;;;3.75;2.75;;;;;19.37;41.65;101982.81;6244264;22;45495;-77
2023/05/25 10:56:05;;;;;;;;;6.50;5.50;;;;;19.46;41.25;102008.53;6243906;22;45266;-77
2023/05/25 10:58:31;;;;;;;;;0.00;0.00;;;;;19.49;41.60;101994.84;6242924;22;45611;-77
2023/05/25 11:01:05;;;;;;;;;4.00;3.00;;;;;19.52;41.75;101990.16;6244895;22;45343;-77
2023/05/25 11:03:42;;;;;;;;;4.75;4.25;;;;;19.58;42.24;101992.56;6245037;22;45427;-77
2023/05/25 11:06:09;;;;;;;;;5.00;4.00;;;;;19.61;41.15;101995.13;6245837;22;45807;-77
2023/05/25 11:08:57;;;;;;;;;6.00;4.00;;;;;19.68;41.89;102008.31;6245566;22;45306;-77
2023/05/25 11:11:41;;;;;;;;;5.25;4.00;;;;;19.71;40.99;101994.63;6244203;22;46451;-77
2023/05/25 11:14:19;;;;;;;;;5.00;3.50;;;;;19.59;41.05;101969.91;6244754;22;45440;-78
2023/05/25 11:17:02;;;;;;;;;4.00;4.00;;;;;19.68;40.91;101987.56;6246282;22;45517;-78
2023/05/25 11:19:48;;;;;;;;;4.25;3.50;;;;;19.78;40.50;101994.28;6246442;22;45379;-77
2023/05/25 11:22:19;;;;;;;;;3.25;3.00;;;;;19.83;40.91;101987.75;6245549;22;45486;-77
2023/05/25 11:24:48;;;;;;;;;5.00;4.00;;;;;19.86;41.04;101987.59;6246785;22;45460;-77
2023/05/25 11:27:13;;;;;;;;;6.75;3.75;;;;;19.75;40.50;101961.94;6245685;22;45332;-77
2023/05/25 11:29:39;;;;;;;;;2.25;2.25;;;;;19.88;40.39;101983.84;6247750;22;45440;-77
2023/05/25 11:32:12;;;;;;;;;7.75;5.00;;;;;19.86;40.55;101969.50;6247473;22;45290;-77
2023/05/25 11:34:37;;;;;;;;;5.00;3.75;;;;;19.96;40.93;101978.00;6247334;22;45234;-77
2023/05/25 11:37:03;;;;;;;;;5.00;5.00;;;;;19.99;41.02;101972.44;6247673;22;45259;-77
2023/05/25 11:39:30;;;;;;;;;4.75;4.75;;;;;20.03;40.53;101959.59;6245240;22;45663;-77
2023/05/25 11:42:01;;;;;;;;;7.50;5.00;;;;;20.08;40.31;101969.25;6247276;22;45258;-77
2023/05/25 11:44:32;;;;;;;;;3.00;3.00;;;;;20.12;39.95;101973.53;6247003;22;45547;-77
2023/05/25 11:47:02;;;;;;;;;2.50;2.50;;;;;20.17;39.99;101982.31;6246112;22;45243;-76
2023/05/25 11:49:27;;;;;;;;;5.00;3.75;;;;;20.18;40.11;101977.78;6246606;22;45463;-78
2023/05/25 11:51:55;;;;;;;;;3.00;3.00;;;;;20.17;39.95;101967.88;6247283;22;45471;-77
2023/05/25 11:54:25;;;;;;;;;4.00;4.00;;;;;20.17;40.25;101968.75;6246675;22;45407;-77
2023/05/25 11:56:50;;;;;;;;;4.75;3.00;;;;;20.21;40.03;101976.72;6247463;22;45243;-77
2023/05/25 11:59:16;;;;;;;;;5.50;4.50;;;;;20.24;39.86;101972.00;6247413;22;45196;-77
2023/05/25 12:01:41;;;;;;;;;4.00;4.00;;;;;20.20;40.27;101942.44;6246938;22;46063;-77
2023/05/25 12:04:08;;;;;;;;;4.25;4.25;;;;;20.28;40.04;101951.94;6246954;22;47960;-77
2023/05/25 12:06:35;;;;;;;;;4.75;4.75;;;;;20.31;40.08;101948.16;6247527;22;45285;-77
2023/05/25 12:09:04;;;;;;;;;6.25;5.25;;;;;20.30;40.03;101936.44;6246872;22;45463;-76
2023/05/25 12:11:31;;;;;;;;;5.75;3.25;;;;;20.32;40.09;101950.78;6245254;22;46173;-77
2023/05/25 12:13:56;;;;;;;;;6.00;5.00;;;;;20.39;40.29;101948.63;6246910;22;45550;-77
2023/05/25 12:16:23;;;;;;;;;6.50;6.50;;;;;20.40;39.92;101946.78;6247046;22;45351;-77
2023/05/25 12:18:49;;;;;;;;;4.00;4.00;;;;;20.44;40.54;101959.22;6246819;22;45282;-77
2023/05/25 12:21:15;;;;;;;;;3.50;3.50;;;;;20.43;40.10;101958.34;6247001;22;46297;-77
2023/05/25 12:23:41;;;;;;;;;4.00;4.00;;;;;20.47;40.43;101951.78;6244345;22;45184;-77
2023/05/25 12:26:11;;;;;;;;;3.00;3.00;;;;;20.53;40.54;101954.16;6247730;22;45263;-77
2023/05/25 12:28:36;;;;;;;;;3.75;3.75;;;;;20.60;40.30;101957.41;6246846;22;45401;-77
2023/05/25 12:31:34;;;;;;;;;5.25;3.00;;;;;20.63;40.88;101959.09;6246932;22;45470;-77
2023/05/25 12:34:03;;;;;;;;;4.25;3.00;;;;;20.64;40.43;101956.31;6245010;22;45874;-77